Time;durP1;ratioP1;P1;durP2;ratioP2;P2;SDS_P1;SDS_P2;PMS_P1;PMS_P2;Temp;Humidity;BMP_temperature;BMP_pressure;BME280_temperature;BME280_humidity;BME280_pressure;Samples;Min_cycle;Max_cycle;Signal;HPM_P1;HPM_P2
2022/07/04 00:00:28;;;;;;;17.70;6.57;;;;;;;;;;5085987;28;20108;-62
2022/07/04 00:02:55;;;;;;;15.27;7.25;;;;;;;;;;5064867;28;20053;-62
2022/07/04 00:05:21;;;;;;;12.93;7.22;;;;;;;;;;5077041;28;20045;-62
2022/07/04 00:07:48;;;;;;;11.30;7.18;;;;;;;;;;5066906;28;20730;-62
2022/07/04 00:10:15;;;;;;;13.93;7.47;;;;;;;;;;5080585;28;20051;-62
2022/07/04 00:12:42;;;;;;;13.02;7.35;;;;;;;;;;5064680;28;20049;-63
2022/07/04 00:15:09;;;;;;;19.30;7.45;;;;;;;;;;5080454;28;20045;-62
2022/07/04 00:17:35;;;;;;;10.70;6.43;;;;;;;;;;5064359;28;20109;-62
2022/07/04 00:20:01;;;;;;;13.00;7.07;;;;;;;;;;5067213;28;20040;-62
2022/07/04 00:22:27;;;;;;;8.48;5.65;;;;;;;;;;5064403;28;20073;-62
2022/07/04 00:24:53;;;;;;;14.02;5.80;;;;;;;;;;5064515;28;20467;-63
2022/07/04 00:27:19;;;;;;;5.97;4.78;;;;;;;;;;5064409;28;20037;-63
2022/07/04 00:29:45;;;;;;;7.38;4.88;;;;;;;;;;5080196;28;20045;-62
2022/07/04 00:32:11;;;;;;;8.77;4.47;;;;;;;;;;5072869;28;20045;-62
2022/07/04 00:34:37;;;;;;;13.63;4.95;;;;;;;;;;5069728;28;20044;-62
2022/07/04 00:37:03;;;;;;;6.78;4.63;;;;;;;;;;5064685;28;20051;-62
2022/07/04 00:39:29;;;;;;;7.93;4.68;;;;;;;;;;5073587;28;20048;-63
2022/07/04 00:41:56;;;;;;;7.25;4.78;;;;;;;;;;5091527;28;20047;-62
2022/07/04 00:44:22;;;;;;;9.63;4.80;;;;;;;;;;5079907;28;20538;-63
2022/07/04 00:46:48;;;;;;;7.00;3.90;;;;;;;;;;5077148;28;20047;-62
2022/07/04 00:49:15;;;;;;;7.47;3.95;;;;;;;;;;5080129;28;20629;-63
2022/07/04 00:51:42;;;;;;;6.05;3.45;;;;;;;;;;5072309;28;20051;-62
2022/07/04 00:54:09;;;;;;;6.93;4.40;;;;;;;;;;5064493;28;20041;-63
2022/07/04 00:56:39;;;;;;;10.60;4.47;;;;;;;;;;5063978;28;20092;-62
2022/07/04 00:59:06;;;;;;;9.52;4.50;;;;;;;;;;5064296;28;20090;-63
2022/07/04 01:01:32;;;;;;;10.13;4.28;;;;;;;;;;5063828;28;20056;-63
2022/07/04 01:03:58;;;;;;;6.85;4.07;;;;;;;;;;5078233;28;20093;-62
2022/07/04 01:06:24;;;;;;;9.52;4.07;;;;;;;;;;5064268;28;20037;-62
2022/07/04 01:08:51;;;;;;;8.18;4.95;;;;;;;;;;5075043;28;20075;-63
2022/07/04 01:11:17;;;;;;;10.38;4.57;;;;;;;;;;5080573;28;20037;-62
2022/07/04 01:13:43;;;;;;;20.15;6.00;;;;;;;;;;5084235;28;20052;-63
2022/07/04 01:16:12;;;;;;;7.25;5.20;;;;;;;;;;5076831;28;20105;-62
2022/07/04 01:18:38;;;;;;;9.77;5.55;;;;;;;;;;5071877;28;20124;-62
2022/07/04 01:21:05;;;;;;;11.57;5.82;;;;;;;;;;5064026;28;20143;-62
2022/07/04 01:23:31;;;;;;;8.77;6.28;;;;;;;;;;5063949;28;20044;-62
2022/07/04 01:25:59;;;;;;;8.38;6.20;;;;;;;;;;5079618;28;20043;-62
2022/07/04 01:28:25;;;;;;;16.73;6.75;;;;;;;;;;5091621;28;20106;-62
2022/07/04 01:30:52;;;;;;;10.23;6.47;;;;;;;;;;5080063;28;20044;-62
2022/07/04 01:33:19;;;;;;;14.05;7.10;;;;;;;;;;5063463;28;20037;-62
2022/07/04 01:35:45;;;;;;;12.18;7.07;;;;;;;;;;5064330;28;20048;-63
2022/07/04 01:38:11;;;;;;;15.10;6.90;;;;;;;;;;5065816;28;20064;-61
2022/07/04 01:40:37;;;;;;;12.60;6.55;;;;;;;;;;5075218;28;20040;-62
2022/07/04 01:43:03;;;;;;;9.30;6.93;;;;;;;;;;5071321;28;20127;-62
2022/07/04 01:45:29;;;;;;;11.77;7.15;;;;;;;;;;5067717;28;20060;-62
2022/07/04 01:47:56;;;;;;;15.63;6.97;;;;;;;;;;5081192;28;20090;-62
2022/07/04 01:50:22;;;;;;;11.00;8.55;;;;;;;;;;5074124;28;20049;-62
2022/07/04 01:52:48;;;;;;;13.88;7.68;;;;;;;;;;5067586;28;20045;-62
2022/07/04 01:55:14;;;;;;;12.15;7.75;;;;;;;;;;5067633;28;20053;-62
2022/07/04 01:57:40;;;;;;;12.32;7.40;;;;;;;;;;5067388;28;20076;-62
2022/07/04 02:02:52;;;;;;;9.93;7.95;;;;;;;;;;5067039;28;20052;-62
2022/07/04 02:05:19;;;;;;;15.35;9.23;;;;;;;;;;5082823;28;20057;-62
2022/07/04 02:07:45;;;;;;;14.00;8.73;;;;;;;;;;5067289;28;20124;-62
2022/07/04 02:10:11;;;;;;;14.63;8.40;;;;;;;;;;5082842;28;20041;-62
2022/07/04 02:15:22;;;;;;;13.45;8.50;;;;;;;;;;5082201;28;20079;-63
2022/07/04 02:17:48;;;;;;;16.05;9.68;;;;;;;;;;5091617;28;20594;-62
2022/07/04 02:20:15;;;;;;;16.65;8.48;;;;;;;;;;5080819;28;20057;-64
2022/07/04 02:22:41;;;;;;;13.35;8.93;;;;;;;;;;5066960;28;20049;-62
2022/07/04 02:25:08;;;;;;;11.90;8.65;;;;;;;;;;5078530;28;20045;-62
2022/07/04 02:27:34;;;;;;;13.70;9.50;;;;;;;;;;5072570;28;20075;-64
2022/07/04 02:30:00;;;;;;;18.65;9.15;;;;;;;;;;5079462;28;20044;-62
2022/07/04 02:32:26;;;;;;;12.93;8.40;;;;;;;;;;5076082;28;20055;-62
2022/07/04 02:34:52;;;;;;;15.32;9.55;;;;;;;;;;5066748;28;20051;-63
2022/07/04 02:37:18;;;;;;;14.05;9.88;;;;;;;;;;5066836;28;20041;-63
2022/07/04 02:39:44;;;;;;;16.38;9.70;;;;;;;;;;5080868;28;20040;-63
2022/07/04 02:42:10;;;;;;;13.82;10.00;;;;;;;;;;5066607;28;20053;-63
2022/07/04 02:44:36;;;;;;;12.13;10.02;;;;;;;;;;5066478;28;20036;-63
2022/07/04 02:47:03;;;;;;;16.65;11.15;;;;;;;;;;5081805;28;20057;-63
2022/07/04 02:49:29;;;;;;;18.20;11.18;;;;;;;;;;5068080;28;20424;-63
2022/07/04 02:51:55;;;;;;;15.88;11.23;;;;;;;;;;5078490;28;20049;-63
2022/07/04 02:54:21;;;;;;;18.90;11.30;;;;;;;;;;5066579;28;20053;-63
2022/07/04 02:56:47;;;;;;;19.40;12.02;;;;;;;;;;5084753;28;20405;-63
2022/07/04 02:59:13;;;;;;;18.15;12.48;;;;;;;;;;5066232;28;20071;-63
2022/07/04 03:01:39;;;;;;;22.70;13.07;;;;;;;;;;5081037;28;20045;-63
2022/07/04 03:04:05;;;;;;;18.85;13.32;;;;;;;;;;5065834;28;20041;-63
2022/07/04 03:06:31;;;;;;;19.73;13.07;;;;;;;;;;5080187;28;20049;-63
2022/07/04 03:08:57;;;;;;;18.75;12.90;;;;;;;;;;5066186;28;20052;-63
2022/07/04 03:11:23;;;;;;;22.00;15.50;;;;;;;;;;5065979;28;20076;-63
2022/07/04 03:13:49;;;;;;;23.33;16.73;;;;;;;;;;5065888;28;20041;-63
2022/07/04 03:16:15;;;;;;;24.23;16.15;;;;;;;;;;5074273;28;20074;-63
2022/07/04 03:18:41;;;;;;;19.17;16.42;;;;;;;;;;5071086;28;20037;-63
2022/07/04 03:21:07;;;;;;;28.27;16.92;;;;;;;;;;5092481;28;20049;-63
2022/07/04 03:23:34;;;;;;;25.45;16.42;;;;;;;;;;5065948;28;20060;-63
2022/07/04 03:26:00;;;;;;;30.30;19.88;;;;;;;;;;5065955;28;20054;-63
2022/07/04 03:28:27;;;;;;;31.15;17.77;;;;;;;;;;5070000;28;20045;-63
2022/07/04 03:30:53;;;;;;;25.10;17.58;;;;;;;;;;5071896;28;20045;-63
2022/07/04 03:33:19;;;;;;;22.63;17.58;;;;;;;;;;5069011;28;20048;-63
2022/07/04 03:35:45;;;;;;;19.75;17.42;;;;;;;;;;5092121;28;20047;-63
2022/07/04 03:38:11;;;;;;;26.55;17.90;;;;;;;;;;5101306;28;20051;-63
2022/07/04 03:40:38;;;;;;;22.75;16.38;;;;;;;;;;5072716;28;20052;-63
2022/07/04 03:43:05;;;;;;;21.55;17.60;;;;;;;;;;5065435;28;20048;-63
2022/07/04 03:45:31;;;;;;;27.03;17.13;;;;;;;;;;5065500;28;20049;-63
2022/07/04 03:47:57;;;;;;;19.42;15.05;;;;;;;;;;5075871;28;20331;-63
2022/07/04 03:50:23;;;;;;;17.25;13.98;;;;;;;;;;5080841;28;20045;-63
2022/07/04 03:52:49;;;;;;;20.05;14.95;;;;;;;;;;5079419;28;20048;-63
2022/07/04 03:55:15;;;;;;;20.35;14.38;;;;;;;;;;5065439;28;20041;-63
2022/07/04 03:57:41;;;;;;;27.25;14.25;;;;;;;;;;5065263;28;20421;-63
2022/07/04 04:00:09;;;;;;;19.00;13.20;;;;;;;;;;5064122;28;20116;-63
2022/07/04 04:02:36;;;;;;;25.48;12.73;;;;;;;;;;5076266;28;20056;-63
2022/07/04 04:07:47;;;;;;;17.17;13.07;;;;;;;;;;5072427;28;20048;-63
2022/07/04 04:10:13;;;;;;;19.88;12.07;;;;;;;;;;5093999;28;20108;-63
2022/07/04 04:12:39;;;;;;;17.88;11.38;;;;;;;;;;5074310;28;20040;-63
2022/07/04 04:15:05;;;;;;;13.65;10.60;;;;;;;;;;5080827;28;20061;-64
2022/07/04 04:17:31;;;;;;;15.93;9.52;;;;;;;;;;5080736;28;20049;-63
2022/07/04 04:19:57;;;;;;;13.95;8.63;;;;;;;;;;5065060;28;20045;-63
2022/07/04 04:22:23;;;;;;;13.55;9.52;;;;;;;;;;5064565;28;20049;-63
2022/07/04 04:24:49;;;;;;;15.05;9.52;;;;;;;;;;5064762;28;20049;-63
2022/07/04 04:27:15;;;;;;;10.65;8.75;;;;;;;;;;5078748;28;20072;-63
2022/07/04 04:29:41;;;;;;;13.52;9.38;;;;;;;;;;5064568;28;20041;-63
2022/07/04 04:32:08;;;;;;;9.82;8.75;;;;;;;;;;5064315;28;20072;-63
2022/07/04 04:34:34;;;;;;;15.82;9.52;;;;;;;;;;5064515;28;20053;-64
2022/07/04 04:37:00;;;;;;;13.05;9.05;;;;;;;;;;5064492;28;20045;-63
2022/07/04 04:39:26;;;;;;;13.90;8.30;;;;;;;;;;5064664;28;20143;-63
2022/07/04 04:41:53;;;;;;;12.05;7.40;;;;;;;;;;5064509;28;20041;-63
2022/07/04 04:44:19;;;;;;;16.63;7.82;;;;;;;;;;5064257;28;20056;-63
2022/07/04 04:46:45;;;;;;;9.90;6.60;;;;;;;;;;5088111;28;20135;-63
2022/07/04 04:49:11;;;;;;;11.88;6.50;;;;;;;;;;5087023;28;20096;-63
2022/07/04 04:51:38;;;;;;;13.05;6.65;;;;;;;;;;5065060;28;20041;-64
2022/07/04 04:54:04;;;;;;;10.70;5.60;;;;;;;;;;5064572;28;20046;-64
2022/07/04 04:56:30;;;;;;;15.80;6.65;;;;;;;;;;5064353;28;20500;-63
2022/07/04 04:58:57;;;;;;;15.50;7.30;;;;;;;;;;5064318;28;20069;-63
2022/07/04 05:01:23;;;;;;;10.55;5.95;;;;;;;;;;5068221;28;20068;-63
2022/07/04 05:03:49;;;;;;;9.95;5.88;;;;;;;;;;5063761;28;20044;-63
2022/07/04 05:06:15;;;;;;;9.68;5.82;;;;;;;;;;5068106;28;20095;-63
2022/07/04 05:08:41;;;;;;;8.95;5.22;;;;;;;;;;5089520;28;20044;-63
2022/07/04 05:11:07;;;;;;;10.23;5.30;;;;;;;;;;5087240;28;20063;-63
2022/07/04 05:13:33;;;;;;;11.98;5.20;;;;;;;;;;5089569;28;20041;-63
2022/07/04 05:15:59;;;;;;;8.13;4.72;;;;;;;;;;5095349;28;20512;-63
2022/07/04 05:18:25;;;;;;;9.95;5.00;;;;;;;;;;5080267;28;20492;-62
2022/07/04 05:20:51;;;;;;;13.75;5.05;;;;;;;;;;5072893;28;20510;-63
2022/07/04 05:23:17;;;;;;;11.88;4.72;;;;;;;;;;5075747;28;20374;-63
2022/07/04 05:25:43;;;;;;;12.02;4.95;;;;;;;;;;5067977;28;20408;-63
2022/07/04 05:28:09;;;;;;;11.82;5.05;;;;;;;;;;5082274;28;20527;-63
2022/07/04 05:30:35;;;;;;;7.22;4.85;;;;;;;;;;5078901;28;20048;-62
2022/07/04 05:33:02;;;;;;;8.80;5.55;;;;;;;;;;5067563;28;20075;-62
2022/07/04 05:35:29;;;;;;;8.05;5.20;;;;;;;;;;5080579;28;20044;-63
2022/07/04 05:37:55;;;;;;;13.50;5.10;;;;;;;;;;5084387;28;20045;-63
2022/07/04 05:40:21;;;;;;;9.07;5.40;;;;;;;;;;5092613;28;20100;-63
2022/07/04 05:42:48;;;;;;;9.98;5.07;;;;;;;;;;5076992;28;20644;-62
2022/07/04 05:45:15;;;;;;;5.75;4.38;;;;;;;;;;5078757;28;20060;-62
2022/07/04 05:47:41;;;;;;;11.05;5.45;;;;;;;;;;5078773;28;20074;-63
2022/07/04 05:50:09;;;;;;;6.85;4.90;;;;;;;;;;5079367;28;20079;-62
2022/07/04 05:52:35;;;;;;;11.75;5.57;;;;;;;;;;5092255;28;20056;-63
2022/07/04 05:55:01;;;;;;;12.20;5.50;;;;;;;;;;5089949;28;20041;-63
2022/07/04 05:57:27;;;;;;;9.30;5.43;;;;;;;;;;5087420;28;20436;-63
2022/07/04 05:59:53;;;;;;;10.70;5.38;;;;;;;;;;5088967;28;20052;-63
2022/07/04 06:02:20;;;;;;;7.05;4.85;;;;;;;;;;5094997;28;20102;-63
2022/07/04 06:04:46;;;;;;;8.20;5.35;;;;;;;;;;5086918;28;20044;-63
2022/07/04 06:07:12;;;;;;;12.90;5.35;;;;;;;;;;5087241;28;20044;-63
2022/07/04 06:09:38;;;;;;;9.48;5.22;;;;;;;;;;5087208;28;20049;-62
2022/07/04 06:12:05;;;;;;;11.88;4.97;;;;;;;;;;5102812;28;20041;-62
2022/07/04 06:14:31;;;;;;;12.00;4.70;;;;;;;;;;5102960;28;20048;-62
2022/07/04 06:16:57;;;;;;;7.20;4.07;;;;;;;;;;5086531;28;20360;-62
2022/07/04 06:19:23;;;;;;;6.95;3.97;;;;;;;;;;5082633;28;20055;-63
2022/07/04 06:21:50;;;;;;;6.85;3.90;;;;;;;;;;5067089;28;20059;-63
2022/07/04 06:24:16;;;;;;;10.90;4.22;;;;;;;;;;5066270;28;20071;-62
2022/07/04 06:26:42;;;;;;;7.90;3.92;;;;;;;;;;5066874;28;20053;-62
2022/07/04 06:29:08;;;;;;;8.27;3.95;;;;;;;;;;5084006;28;20052;-63
2022/07/04 06:31:34;;;;;;;9.35;3.53;;;;;;;;;;5066276;28;20125;-63
2022/07/04 06:36:46;;;;;;;4.60;2.60;;;;;;;;;;5066517;28;20075;-62
2022/07/04 06:39:12;;;;;;;9.80;3.03;;;;;;;;;;5068176;28;20048;-63
2022/07/04 06:41:38;;;;;;;6.68;2.88;;;;;;;;;;5082158;28;20045;-63
2022/07/04 06:44:05;;;;;;;7.65;2.67;;;;;;;;;;5066695;28;20447;-62
2022/07/04 06:46:31;;;;;;;8.93;2.87;;;;;;;;;;5086926;28;20131;-63
2022/07/04 06:48:57;;;;;;;8.25;2.67;;;;;;;;;;5075309;28;20280;-63
2022/07/04 06:51:24;;;;;;;5.43;2.58;;;;;;;;;;5066568;28;20080;-63
2022/07/04 06:53:50;;;;;;;8.70;2.55;;;;;;;;;;5076266;28;20372;-61
2022/07/04 06:56:17;;;;;;;5.72;2.97;;;;;;;;;;5070507;28;20412;-62
2022/07/04 06:58:43;;;;;;;9.02;3.38;;;;;;;;;;5072230;28;20132;-62
2022/07/04 07:01:09;;;;;;;10.52;2.72;;;;;;;;;;5080208;28;20104;-62
2022/07/04 07:03:35;;;;;;;9.15;3.33;;;;;;;;;;5094160;28;20125;-62
2022/07/04 07:06:02;;;;;;;9.32;2.85;;;;;;;;;;5097165;28;20044;-63
2022/07/04 07:08:29;;;;;;;9.45;3.65;;;;;;;;;;5089662;28;20045;-62
2022/07/04 07:10:56;;;;;;;12.93;3.53;;;;;;;;;;5091114;28;20051;-62
2022/07/04 07:13:22;;;;;;;8.27;3.00;;;;;;;;;;5088297;28;20040;-62
2022/07/04 07:15:48;;;;;;;7.85;3.65;;;;;;;;;;5080849;28;20455;-63
2022/07/04 07:18:16;;;;;;;8.60;3.78;;;;;;;;;;5085748;28;20046;-64
2022/07/04 07:20:42;;;;;;;7.57;2.90;;;;;;;;;;5086433;28;20037;-61
2022/07/04 07:23:08;;;;;;;5.80;3.00;;;;;;;;;;5077492;28;20056;-64
2022/07/04 07:25:34;;;;;;;5.47;2.90;;;;;;;;;;5091199;28;20041;-62
2022/07/04 07:28:00;;;;;;;10.95;3.08;;;;;;;;;;5086583;28;20393;-63
2022/07/04 07:30:27;;;;;;;9.73;2.83;;;;;;;;;;5075423;28;20047;-63
2022/07/04 07:32:53;;;;;;;4.18;2.03;;;;;;;;;;5076145;28;20159;-71
2022/07/04 07:35:19;;;;;;;9.02;3.17;;;;;;;;;;5079926;28;20044;-69
2022/07/04 07:37:45;;;;;;;6.72;3.15;;;;;;;;;;5088906;28;20098;-65
2022/07/04 07:40:11;;;;;;;6.97;2.97;;;;;;;;;;5081324;28;20118;-73
2022/07/04 07:42:38;;;;;;;8.00;3.20;;;;;;;;;;5076360;28;20508;-74
2022/07/04 07:45:04;;;;;;;5.68;3.15;;;;;;;;;;5082202;28;20101;-81
2022/07/04 07:47:30;;;;;;;5.57;3.13;;;;;;;;;;5078096;28;20064;-74
2022/07/04 07:49:57;;;;;;;8.40;3.20;;;;;;;;;;5083028;28;20052;-72
2022/07/04 07:52:23;;;;;;;7.13;2.85;;;;;;;;;;5083864;28;20070;-73
2022/07/04 07:54:49;;;;;;;9.75;3.53;;;;;;;;;;5080159;28;20058;-75
2022/07/04 07:57:15;;;;;;;9.60;2.90;;;;;;;;;;5086694;28;20044;-74
2022/07/04 07:59:41;;;;;;;9.25;3.15;;;;;;;;;;5087296;28;20051;-73
2022/07/04 08:02:07;;;;;;;10.35;3.35;;;;;;;;;;5075123;28;20058;-73
2022/07/04 08:04:41;;;;;;;6.72;2.47;;;;;;;;;;5081236;28;20052;-71
2022/07/04 08:07:12;;;;;;;5.47;2.33;;;;;;;;;;5081511;28;20041;-75
2022/07/04 08:09:38;;;;;;;9.93;2.70;;;;;;;;;;5083636;28;20044;-75
2022/07/04 08:12:06;;;;;;;6.70;2.40;;;;;;;;;;5079774;28;20045;-73
2022/07/04 08:14:32;;;;;;;;;;;;;;;;;;5078521;28;20129;-66
2022/07/04 08:16:59;;;;;;;7.75;2.00;;;;;;;;;;5080070;28;19920;-65
2022/07/04 08:19:25;;;;;;;8.70;2.63;;;;;;;;;;5087289;28;20098;-64
2022/07/04 08:21:52;;;;;;;11.57;2.97;;;;;;;;;;5068189;28;20044;-65
2022/07/04 08:24:18;;;;;;;6.93;2.20;;;;;;;;;;5068598;28;20201;-64
2022/07/04 08:26:45;;;;;;;5.82;2.30;;;;;;;;;;5071067;28;20040;-65
2022/07/04 08:29:11;;;;;;;7.88;2.78;;;;;;;;;;5080388;28;20045;-65
2022/07/04 08:31:37;;;;;;;7.15;2.50;;;;;;;;;;5085153;28;20403;-65
2022/07/04 08:34:03;;;;;;;4.85;2.45;;;;;;;;;;5084580;28;20070;-66
2022/07/04 08:36:30;;;;;;;9.30;2.80;;;;;;;;;;5087934;28;20055;-64
2022/07/04 08:38:56;;;;;;;7.53;2.17;;;;;;;;;;5082621;28;20096;-64
2022/07/04 08:41:22;;;;;;;11.00;2.53;;;;;;;;;;5077485;28;20044;-64
2022/07/04 08:43:48;;;;;;;4.47;1.90;;;;;;;;;;5073115;28;20044;-64
2022/07/04 08:46:17;;;;;;;5.63;2.05;;;;;;;;;;5074497;28;20091;-63
2022/07/04 08:48:43;;;;;;;6.15;1.90;;;;;;;;;;5077289;28;20044;-64
2022/07/04 08:51:17;;;;;;;5.72;1.52;;;;;;;;;;5077653;28;20045;-72
2022/07/04 08:53:50;;;;;;;3.97;1.92;;;;;;;;;;5057665;28;20044;-74
2022/07/04 08:59:03;;;;;;;3.13;1.00;;;;;;;;;;5081598;28;20176;-67
2022/07/04 09:01:29;;;;;;;1.53;0.70;;;;;;;;;;5086765;28;20052;-70
2022/07/04 09:03:55;;;;;;;5.18;1.15;;;;;;;;;;5075679;28;20044;-71
2022/07/04 09:06:22;;;;;;;2.40;0.98;;;;;;;;;;5079616;28;20119;-66
2022/07/04 09:08:48;;;;;;;3.90;1.20;;;;;;;;;;5119338;28;20063;-67
2022/07/04 09:11:14;;;;;;;4.05;1.23;;;;;;;;;;5086523;28;20044;-67
2022/07/04 09:13:41;;;;;;;4.80;1.08;;;;;;;;;;5084197;28;20055;-73
2022/07/04 09:16:07;;;;;;;6.28;1.15;;;;;;;;;;5085705;28;20090;-74
2022/07/04 09:18:34;;;;;;;2.55;1.63;;;;;;;;;;5082927;28;20187;-70
2022/07/04 09:21:07;;;;;;;3.97;1.05;;;;;;;;;;5083652;28;20044;-70
2022/07/04 09:23:35;;;;;;;5.47;1.65;;;;;;;;;;5086828;28;20065;-71
2022/07/04 09:26:01;;;;;;;;;;;;;;;;;;5083653;28;20133;-66
2022/07/04 09:28:28;;;;;;;4.78;1.08;;;;;;;;;;5116557;28;19927;-66
2022/07/04 09:30:54;;;;;;;7.10;1.45;;;;;;;;;;5080632;28;20052;-66
2022/07/04 09:33:21;;;;;;;3.30;1.00;;;;;;;;;;5080968;28;20078;-68
2022/07/04 09:35:47;;;;;;;8.48;1.13;;;;;;;;;;5085273;28;20048;-68
2022/07/04 09:38:21;;;;;;;7.90;1.20;;;;;;;;;;5092496;28;20500;-65
2022/07/04 09:43:37;;;;;;;4.45;1.23;;;;;;;;;;5090579;28;20064;-79
2022/07/04 09:46:03;;;;;;;7.43;1.05;;;;;;;;;;5092187;28;20052;-73
2022/07/04 09:48:49;;;;;;;2.53;0.80;;;;;;;;;;5085980;28;20392;-75
2022/07/04 09:51:15;;;;;;;3.58;0.90;;;;;;;;;;5081221;28;20540;-73
2022/07/04 09:53:41;;;;;;;4.45;1.00;;;;;;;;;;5078402;28;20051;-75
2022/07/04 09:56:07;;;;;;;1.50;0.80;;;;;;;;;;5081536;28;20060;-76
2022/07/04 09:58:33;;;;;;;2.50;0.85;;;;;;;;;;5081560;28;20130;-77
2022/07/04 10:01:00;;;;;;;4.68;1.10;;;;;;;;;;5082115;28;20068;-76
2022/07/04 10:03:28;;;;;;;4.40;1.27;;;;;;;;;;5079678;28;20056;-67
2022/07/04 10:06:03;;;;;;;3.58;1.45;;;;;;;;;;5077120;28;20413;-70
2022/07/04 10:08:29;;;;;;;2.03;0.95;;;;;;;;;;5075648;28;20072;-70
2022/07/04 10:10:59;;;;;;;4.53;1.42;;;;;;;;;;5082009;28;20047;-70
2022/07/04 10:13:25;;;;;;;1.67;0.73;;;;;;;;;;5080605;28;20056;-68
2022/07/04 10:15:51;;;;;;;5.00;1.00;;;;;;;;;;5092909;28;20108;-68
2022/07/04 10:18:18;;;;;;;4.20;0.90;;;;;;;;;;5089927;28;20036;-67
2022/07/04 10:20:45;;;;;;;5.47;1.40;;;;;;;;;;5078579;28;20032;-68
2022/07/04 10:23:12;;;;;;;2.70;0.80;;;;;;;;;;5069665;28;20051;-69
2022/07/04 10:25:38;;;;;;;2.80;1.00;;;;;;;;;;5082973;28;20104;-64
2022/07/04 10:28:04;;;;;;;3.85;1.00;;;;;;;;;;5077771;28;20048;-66
2022/07/04 10:30:32;;;;;;;2.83;0.90;;;;;;;;;;5084832;28;20104;-66
2022/07/04 10:33:00;;;;;;;3.65;1.20;;;;;;;;;;5083058;28;20125;-66
2022/07/04 10:35:45;;;;;;;4.22;1.20;;;;;;;;;;5086288;28;20059;-70
2022/07/04 10:38:11;;;;;;;7.57;0.93;;;;;;;;;;5089571;28;20048;-66
2022/07/04 10:41:07;;;;;;;2.15;0.98;;;;;;;;;;5080603;28;20040;-72
2022/07/04 10:43:43;;;;;;;3.33;0.80;;;;;;;;;;5080272;28;20060;-75
2022/07/04 10:46:15;;;;;;;2.08;0.80;;;;;;;;;;5082273;28;20069;-69
2022/07/04 10:48:55;;;;;;;2.70;1.10;;;;;;;;;;5080375;28;20048;-64
2022/07/04 10:51:33;;;;;;;4.30;0.90;;;;;;;;;;5081842;28;20060;-67
2022/07/04 10:54:10;;;;;;;3.35;0.80;;;;;;;;;;5084295;28;20052;-68
2022/07/04 10:56:37;;;;;;;2.78;1.13;;;;;;;;;;5080915;28;20480;-68
2022/07/04 10:59:09;;;;;;;4.38;1.20;;;;;;;;;;5086885;28;20045;-69
2022/07/04 11:01:35;;;;;;;2.88;0.80;;;;;;;;;;5087867;28;20097;-70
2022/07/04 11:04:01;;;;;;;4.40;1.23;;;;;;;;;;5091113;28;20061;-70
2022/07/04 11:06:37;;;;;;;3.28;1.20;;;;;;;;;;5086532;28;20044;-70
2022/07/04 11:09:19;;;;;;;2.10;0.93;;;;;;;;;;5085362;28;20044;-69
2022/07/04 11:11:49;;;;;;;4.22;1.27;;;;;;;;;;5079425;28;20083;-69
2022/07/04 11:14:35;;;;;;;2.75;0.85;;;;;;;;;;5075256;28;20105;-67
2022/07/04 11:17:01;;;;;;;3.30;1.48;;;;;;;;;;5078451;28;20092;-68
2022/07/04 11:19:28;;;;;;;1.48;0.70;;;;;;;;;;5093943;28;20055;-68
2022/07/04 11:21:55;;;;;;;2.78;0.73;;;;;;;;;;5086080;28;20049;-68
2022/07/04 11:24:21;;;;;;;3.20;1.67;;;;;;;;;;5080232;28;20083;-68
2022/07/04 11:26:47;;;;;;;4.10;1.00;;;;;;;;;;5084966;28;20113;-68
2022/07/04 11:29:14;;;;;;;0.60;0.60;;;;;;;;;;5100725;28;20048;-68
2022/07/04 11:31:41;;;;;;;3.17;1.15;;;;;;;;;;5085091;28;20046;-68
2022/07/04 11:34:08;;;;;;;3.55;0.80;;;;;;;;;;5090007;28;20089;-67
2022/07/04 11:36:34;;;;;;;1.25;0.80;;;;;;;;;;5083941;28;20046;-67
2022/07/04 11:39:02;;;;;;;4.22;1.13;;;;;;;;;;5086610;28;20037;-67
2022/07/04 11:47:16;;;;;;;2.58;0.82;;;;;;;;;;5071547;28;20041;-68
2022/07/04 11:49:46;;;;;;;2.13;0.93;;;;;;;;;;5068271;28;20163;-67
2022/07/04 11:52:13;;;;;;;4.00;0.70;;;;;;;;;;5071815;28;20052;-67
2022/07/04 11:54:40;;;;;;;1.42;0.68;;;;;;;;;;5083419;28;20048;-67
2022/07/04 11:57:26;;;;;;;2.08;0.80;;;;;;;;;;5084787;28;20075;-67
2022/07/04 11:59:53;;;;;;;1.73;0.40;;;;;;;;;;5078838;28;20486;-66
2022/07/04 12:02:19;;;;;;;;;;;;;;;;;;5083326;28;20087;-67
2022/07/04 12:04:45;;;;;;;1.63;0.57;;;;;;;;;;5118925;27;19920;-68
2022/07/04 12:07:12;;;;;;;7.13;0.90;;;;;;;;;;5087652;28;20123;-68
2022/07/04 12:09:39;;;;;;;3.25;0.70;;;;;;;;;;5087958;28;20602;-69
2022/07/04 12:12:05;;;;;;;25.50;3.60;;;;;;;;;;5077189;28;20053;-67
2022/07/04 12:14:31;;;;;;;2.97;0.73;;;;;;;;;;5093612;28;20511;-66
2022/07/04 12:17:10;;;;;;;1.48;0.55;;;;;;;;;;5087735;28;20048;-66
2022/07/04 12:19:36;;;;;;;1.25;0.57;;;;;;;;;;5094171;28;20052;-67
2022/07/04 12:22:03;;;;;;;10.40;0.85;;;;;;;;;;5082794;28;20045;-66
2022/07/04 12:24:29;;;;;;;4.03;0.88;;;;;;;;;;5124943;27;20048;-67
2022/07/04 12:26:55;;;;;;;3.40;0.68;;;;;;;;;;5084701;28;20096;-67
2022/07/04 12:29:23;;;;;;;2.13;1.15;;;;;;;;;;5095460;28;20142;-68
2022/07/04 12:31:51;;;;;;;3.65;0.70;;;;;;;;;;5083653;28;20045;-67
2022/07/04 12:34:18;;;;;;;1.95;0.73;;;;;;;;;;5083587;28;20048;-66
2022/07/04 12:36:52;;;;;;;2.85;1.15;;;;;;;;;;5099449;28;20044;-67
2022/07/04 12:39:31;;;;;;;3.08;0.90;;;;;;;;;;5081133;28;20063;-67
2022/07/04 12:42:24;;;;;;;3.55;0.82;;;;;;;;;;5075009;28;20587;-67
2022/07/04 12:44:51;;;;;;;2.08;0.80;;;;;;;;;;5072482;28;20061;-67
2022/07/04 12:47:17;;;;;;;2.20;1.05;;;;;;;;;;5075295;28;20140;-68
2022/07/04 12:49:44;;;;;;;2.03;0.65;;;;;;;;;;5078530;28;21535;-67
2022/07/04 12:52:10;;;;;;;;;;;;;;;;;;5076582;28;20044;-68
2022/07/04 12:54:38;;;;;;;2.22;0.90;;;;;;;;;;5073773;28;20011;-67
2022/07/04 12:57:05;;;;;;;2.30;0.85;;;;;;;;;;5081446;28;20040;-67
2022/07/04 12:59:31;;;;;;;1.90;0.88;;;;;;;;;;5088079;28;20055;-68
2022/07/04 13:01:57;;;;;;;4.95;1.02;;;;;;;;;;5083977;28;20052;-67
2022/07/04 13:04:23;;;;;;;4.82;0.80;;;;;;;;;;5084591;28;20555;-67
2022/07/04 13:06:49;;;;;;;1.70;0.70;;;;;;;;;;5079478;28;20041;-67
2022/07/04 13:09:16;;;;;;;6.82;1.00;;;;;;;;;;5078001;28;20080;-68
2022/07/04 13:14:26;;;;;;;2.53;0.70;;;;;;;;;;5081078;28;20072;-67
2022/07/04 13:16:53;;;;;;;0.63;0.50;;;;;;;;;;5085980;28;20040;-67
2022/07/04 13:19:19;;;;;;;1.87;0.90;;;;;;;;;;5073216;28;20043;-67
2022/07/04 13:21:47;;;;;;;0.90;0.50;;;;;;;;;;5091138;28;20318;-67
2022/07/04 13:24:13;;;;;;;1.55;0.60;;;;;;;;;;5098609;28;20100;-67
2022/07/04 13:26:40;;;;;;;4.07;0.80;;;;;;;;;;5076829;28;20052;-67
2022/07/04 13:29:06;;;;;;;2.25;0.50;;;;;;;;;;5092969;28;20307;-67
2022/07/04 13:31:32;;;;;;;3.58;0.47;;;;;;;;;;5080861;28;20071;-67
2022/07/04 13:33:59;;;;;;;0.93;0.40;;;;;;;;;;5083544;28;20100;-68
2022/07/04 13:36:25;;;;;;;1.33;0.60;;;;;;;;;;5090821;28;20076;-68
2022/07/04 13:38:51;;;;;;;0.57;0.50;;;;;;;;;;5088644;28;20123;-68
2022/07/04 13:41:17;;;;;;;4.03;0.80;;;;;;;;;;5086768;28;20048;-67
2022/07/04 13:43:43;;;;;;;1.90;1.10;;;;;;;;;;5081084;28;20045;-67
2022/07/04 13:46:09;;;;;;;1.33;0.75;;;;;;;;;;5087071;28;20123;-67
2022/07/04 13:48:36;;;;;;;1.05;0.55;;;;;;;;;;5086150;28;20052;-67
2022/07/04 13:51:02;;;;;;;1.37;0.50;;;;;;;;;;5077964;28;20051;-67
2022/07/04 13:53:28;;;;;;;3.45;0.60;;;;;;;;;;5084788;28;20044;-67
2022/07/04 13:55:54;;;;;;;1.48;0.60;;;;;;;;;;5090636;28;20052;-67
2022/07/04 13:58:20;;;;;;;2.50;0.75;;;;;;;;;;5090067;28;20053;-67
2022/07/04 14:00:46;;;;;;;0.80;0.30;;;;;;;;;;5085001;28;20127;-67
2022/07/04 14:03:13;;;;;;;5.07;0.80;;;;;;;;;;5081983;28;20155;-67
2022/07/04 14:05:41;;;;;;;3.28;0.60;;;;;;;;;;5081160;28;20044;-67
2022/07/04 14:08:07;;;;;;;1.70;0.60;;;;;;;;;;5085471;28;20045;-67
2022/07/04 14:10:33;;;;;;;1.85;0.77;;;;;;;;;;5082072;28;20076;-67
2022/07/04 14:12:59;;;;;;;1.45;0.50;;;;;;;;;;5082409;28;20116;-68
2022/07/04 14:15:25;;;;;;;2.45;0.30;;;;;;;;;;5082731;28;20193;-68
2022/07/04 14:17:52;;;;;;;2.75;0.55;;;;;;;;;;5093706;28;20055;-71
2022/07/04 14:20:18;;;;;;;1.93;0.60;;;;;;;;;;5094864;28;20048;-68
2022/07/04 14:22:44;;;;;;;4.03;0.90;;;;;;;;;;5074534;28;20712;-73
2022/07/04 14:25:10;;;;;;;0.90;0.50;;;;;;;;;;5076700;28;20051;-67
2022/07/04 14:27:36;;;;;;;1.10;0.40;;;;;;;;;;5099772;28;20280;-66
2022/07/04 14:30:03;;;;;;;1.50;0.60;;;;;;;;;;5075477;28;20053;-67
2022/07/04 14:32:30;;;;;;;2.58;0.43;;;;;;;;;;5086038;28;20115;-67
2022/07/04 14:34:56;;;;;;;2.03;0.73;;;;;;;;;;5080482;28;20045;-66
2022/07/04 14:37:22;;;;;;;4.03;3.22;;;;;;;;;;5075861;28;20040;-67
2022/07/04 14:39:49;;;;;;;2.50;0.63;;;;;;;;;;5082642;28;20040;-67
2022/07/04 14:42:16;;;;;;;1.33;0.50;;;;;;;;;;5089047;28;20067;-67
2022/07/04 14:44:42;;;;;;;1.65;0.50;;;;;;;;;;5086373;28;20046;-67
2022/07/04 14:47:08;;;;;;;2.97;0.70;;;;;;;;;;5091710;28;20048;-66
2022/07/04 14:49:34;;;;;;;3.93;1.10;;;;;;;;;;5078820;28;20051;-67
2022/07/04 14:52:01;;;;;;;1.92;0.30;;;;;;;;;;5085514;28;20378;-67
2022/07/04 14:54:27;;;;;;;4.10;0.60;;;;;;;;;;5095970;28;20047;-67
2022/07/04 14:56:53;;;;;;;1.55;0.50;;;;;;;;;;5081542;28;20112;-67
2022/07/04 14:59:20;;;;;;;2.10;0.80;;;;;;;;;;5078642;28;20049;-67
2022/07/04 15:01:46;;;;;;;2.50;0.70;;;;;;;;;;5094950;28;20061;-64